sensor_id;sensor_type;location;lat;lon;timestamp;pressure;altitude;pressure_sealevel;temperature;humidity
39267;BME280;24967;51.154;13.812;2023-02-18T00:00:18;99670.66;;;9.39;66.63
39267;BME280;24967;51.154;13.812;2023-02-18T00:02:47;99667.59;;;9.25;65.66
39267;BME280;24967;51.154;13.812;2023-02-18T00:05:14;99675.13;;;9.20;63.73
39267;BME280;24967;51.154;13.812;2023-02-18T00:07:40;99660.34;;;9.27;63.26
39267;BME280;24967;51.154;13.812;2023-02-18T00:10:10;99673.88;;;9.24;62.83
39267;BME280;24967;51.154;13.812;2023-02-18T00:12:37;99668.69;;;9.03;61.69
39267;BME280;24967;51.154;13.812;2023-02-18T00:15:04;99662.84;;;9.09;60.94
39267;BME280;24967;51.154;13.812;2023-02-18T00:17:31;99659.91;;;9.12;61.02
39267;BME280;24967;51.154;13.812;2023-02-18T00:19:59;99660.91;;;9.11;60.37
39267;BME280;24967;51.154;13.812;2023-02-18T00:22:25;99670.34;;;8.94;60.16
39267;BME280;24967;51.154;13.812;2023-02-18T00:24:52;99669.97;;;8.99;60.15
39267;BME280;24967;51.154;13.812;2023-02-18T00:27:18;99657.50;;;8.89;59.91
39267;BME280;24967;51.154;13.812;2023-02-18T00:29:45;99666.41;;;8.69;59.99
39267;BME280;24967;51.154;13.812;2023-02-18T00:32:11;99679.13;;;8.85;60.21
39267;BME280;24967;51.154;13.812;2023-02-18T00:34:38;99660.84;;;8.91;60.10
39267;BME280;24967;51.154;13.812;2023-02-18T00:37:06;99685.97;;;8.87;60.38
39267;BME280;24967;51.154;13.812;2023-02-18T00:39:32;99667.78;;;8.73;60.24
39267;BME280;24967;51.154;13.812;2023-02-18T00:41:59;99675.78;;;8.92;61.19
39267;BME280;24967;51.154;13.812;2023-02-18T00:44:25;99673.38;;;8.80;60.50
39267;BME280;24967;51.154;13.812;2023-02-18T00:46:51;99679.84;;;8.97;61.19
39267;BME280;24967;51.154;13.812;2023-02-18T00:49:18;99693.94;;;8.87;60.67
39267;BME280;24967;51.154;13.812;2023-02-18T00:51:45;99694.00;;;8.66;60.88
39267;BME280;24967;51.154;13.812;2023-02-18T00:54:12;99678.75;;;8.59;61.52
39267;BME280;24967;51.154;13.812;2023-02-18T00:56:39;99696.38;;;8.69;61.50
39267;BME280;24967;51.154;13.812;2023-02-18T00:59:05;99694.28;;;8.73;62.00
39267;BME280;24967;51.154;13.812;2023-02-18T01:01:32;99697.09;;;8.71;62.32
39267;BME280;24967;51.154;13.812;2023-02-18T01:03:59;99693.91;;;8.78;61.01
39267;BME280;24967;51.154;13.812;2023-02-18T01:06:26;99696.41;;;8.79;61.78
39267;BME280;24967;51.154;13.812;2023-02-18T01:08:52;99688.28;;;8.71;61.58
39267;BME280;24967;51.154;13.812;2023-02-18T01:11:20;99693.44;;;8.63;61.96
39267;BME280;24967;51.154;13.812;2023-02-18T01:13:47;99694.75;;;8.78;62.02
39267;BME280;24967;51.154;13.812;2023-02-18T01:16:13;99694.28;;;8.73;62.03
39267;BME280;24967;51.154;13.812;2023-02-18T01:18:41;99685.56;;;8.52;62.14
39267;BME280;24967;51.154;13.812;2023-02-18T01:21:08;99695.56;;;8.79;62.38
39267;BME280;24967;51.154;13.812;2023-02-18T01:23:36;99690.72;;;8.53;62.06
39267;BME280;24967;51.154;13.812;2023-02-18T01:26:03;99691.88;;;8.60;63.07
39267;BME280;24967;51.154;13.812;2023-02-18T01:28:31;99690.44;;;8.46;62.65
39267;BME280;24967;51.154;13.812;2023-02-18T01:30:57;99683.59;;;8.44;62.39
39267;BME280;24967;51.154;13.812;2023-02-18T01:33:28;99683.22;;;8.58;61.97
39267;BME280;24967;51.154;13.812;2023-02-18T01:35:55;99681.25;;;8.51;61.97
39267;BME280;24967;51.154;13.812;2023-02-18T01:38:22;99678.78;;;8.38;61.78
39267;BME280;24967;51.154;13.812;2023-02-18T01:40:50;99679.47;;;8.30;62.07
39267;BME280;24967;51.154;13.812;2023-02-18T01:43:17;99677.91;;;8.27;62.79
39267;BME280;24967;51.154;13.812;2023-02-18T01:45:56;99679.25;;;8.43;62.13
39267;BME280;24967;51.154;13.812;2023-02-18T01:48:26;99684.00;;;8.39;62.46
39267;BME280;24967;51.154;13.812;2023-02-18T01:50:59;99677.44;;;8.43;62.27
39267;BME280;24967;51.154;13.812;2023-02-18T01:53:30;99681.81;;;8.23;62.15
39267;BME280;24967;51.154;13.812;2023-02-18T01:55:59;99677.88;;;8.39;61.89
39267;BME280;24967;51.154;13.812;2023-02-18T01:58:28;99680.72;;;8.26;62.71
39267;BME280;24967;51.154;13.812;2023-02-18T02:00:56;99685.03;;;8.27;62.35
39267;BME280;24967;51.154;13.812;2023-02-18T02:03:23;99674.13;;;8.20;62.95
39267;BME280;24967;51.154;13.812;2023-02-18T02:05:49;99670.41;;;8.02;63.75
39267;BME280;24967;51.154;13.812;2023-02-18T02:08:16;99675.31;;;8.37;63.07
39267;BME280;24967;51.154;13.812;2023-02-18T02:10:59;99676.28;;;8.36;63.66
39267;BME280;24967;51.154;13.812;2023-02-18T02:13:42;99683.22;;;8.58;63.35
39267;BME280;24967;51.154;13.812;2023-02-18T02:16:18;99690.91;;;8.61;63.40
39267;BME280;24967;51.154;13.812;2023-02-18T02:18:56;99696.63;;;8.57;64.38
39267;BME280;24967;51.154;13.812;2023-02-18T02:21:50;99697.47;;;8.57;64.49
39267;BME280;24967;51.154;13.812;2023-02-18T02:27:19;99680.19;;;8.63;65.39
39267;BME280;24967;51.154;13.812;2023-02-18T02:30:17;99689.63;;;9.06;64.39
39267;BME280;24967;51.154;13.812;2023-02-18T02:33:44;99686.00;;;9.07;64.79
39267;BME280;24967;51.154;13.812;2023-02-18T02:36:20;99676.44;;;8.65;67.02
39267;BME280;24967;51.154;13.812;2023-02-18T02:38:54;99682.44;;;8.77;67.93
39267;BME280;24967;51.154;13.812;2023-02-18T02:41:36;99685.97;;;8.97;68.28
39267;BME280;24967;51.154;13.812;2023-02-18T02:44:13;99695.56;;;8.79;69.94
39267;BME280;24967;51.154;13.812;2023-02-18T02:46:45;99681.31;;;8.70;70.98
39267;BME280;24967;51.154;13.812;2023-02-18T02:49:23;99675.75;;;8.73;72.11
39267;BME280;24967;51.154;13.812;2023-02-18T02:51:58;99679.41;;;8.82;72.78
39267;BME280;24967;51.154;13.812;2023-02-18T02:54:27;99676.09;;;8.59;74.12
39267;BME280;24967;51.154;13.812;2023-02-18T02:57:06;99676.19;;;8.78;74.33
39267;BME280;24967;51.154;13.812;2023-02-18T02:59:35;99676.88;;;8.80;74.45
39267;BME280;24967;51.154;13.812;2023-02-18T03:02:17;99678.28;;;8.75;74.74
39267;BME280;24967;51.154;13.812;2023-02-18T03:05:00;99680.94;;;8.75;74.75
39267;BME280;24967;51.154;13.812;2023-02-18T03:07:47;99682.97;;;8.71;74.47
39267;BME280;24967;51.154;13.812;2023-02-18T03:10:29;99683.31;;;8.78;74.29
39267;BME280;24967;51.154;13.812;2023-02-18T03:13:07;99684.66;;;8.62;73.81
39267;BME280;24967;51.154;13.812;2023-02-18T03:15:39;99679.19;;;8.64;73.71
39267;BME280;24967;51.154;13.812;2023-02-18T03:18:14;99686.84;;;8.47;72.93
39267;BME280;24967;51.154;13.812;2023-02-18T03:20:47;99688.16;;;8.73;71.77
39267;BME280;24967;51.154;13.812;2023-02-18T03:23:21;99688.13;;;8.63;70.78
39267;BME280;24967;51.154;13.812;2023-02-18T03:25:51;99681.13;;;8.52;70.18
39267;BME280;24967;51.154;13.812;2023-02-18T03:28:20;99690.59;;;8.55;69.57
39267;BME280;24967;51.154;13.812;2023-02-18T03:30:51;99679.47;;;8.61;69.94
39267;BME280;24967;51.154;13.812;2023-02-18T03:33:22;99686.44;;;8.62;69.73
39267;BME280;24967;51.154;13.812;2023-02-18T03:35:52;99680.19;;;8.63;69.71
39267;BME280;24967;51.154;13.812;2023-02-18T03:38:25;99686.94;;;8.86;69.07
39267;BME280;24967;51.154;13.812;2023-02-18T03:40:54;99693.28;;;8.64;69.30
39267;BME280;24967;51.154;13.812;2023-02-18T03:43:22;99677.94;;;8.37;69.24
39267;BME280;24967;51.154;13.812;2023-02-18T03:45:49;99695.63;;;8.58;68.47
39267;BME280;24967;51.154;13.812;2023-02-18T03:48:16;99681.56;;;8.57;69.15
39267;BME280;24967;51.154;13.812;2023-02-18T03:50:42;99676.56;;;8.64;68.87
39267;BME280;24967;51.154;13.812;2023-02-18T03:53:09;99684.69;;;8.72;69.02
39267;BME280;24967;51.154;13.812;2023-02-18T03:55:37;99682.31;;;8.69;68.96
39267;BME280;24967;51.154;13.812;2023-02-18T03:58:03;99685.34;;;8.74;69.04
39267;BME280;24967;51.154;13.812;2023-02-18T04:00:30;99679.50;;;8.70;69.99
39267;BME280;24967;51.154;13.812;2023-02-18T04:02:57;99676.75;;;8.82;69.55
39267;BME280;24967;51.154;13.812;2023-02-18T04:05:23;99676.00;;;8.70;70.22
39267;BME280;24967;51.154;13.812;2023-02-18T04:07:50;99677.84;;;8.69;70.65
39267;BME280;24967;51.154;13.812;2023-02-18T04:10:16;99675.56;;;8.65;70.96
39267;BME280;24967;51.154;13.812;2023-02-18T04:12:44;99670.53;;;8.62;70.79
39267;BME280;24967;51.154;13.812;2023-02-18T04:15:11;99686.72;;;8.59;70.53
39267;BME280;24967;51.154;13.812;2023-02-18T04:17:38;99687.03;;;8.65;70.70
39267;BME280;24967;51.154;13.812;2023-02-18T04:20:05;99686.44;;;8.62;70.54
39267;BME280;24967;51.154;13.812;2023-02-18T04:22:32;99685.78;;;8.69;70.15
39267;BME280;24967;51.154;13.812;2023-02-18T04:24:59;99696.81;;;8.75;70.88
39267;BME280;24967;51.154;13.812;2023-02-18T04:27:25;99688.06;;;8.93;70.62
39267;BME280;24967;51.154;13.812;2023-02-18T04:29:53;99689.34;;;8.99;70.06
39267;BME280;24967;51.154;13.812;2023-02-18T04:32:20;99690.31;;;8.98;70.34
39267;BME280;24967;51.154;13.812;2023-02-18T04:34:46;99697.31;;;8.99;70.45
39267;BME280;24967;51.154;13.812;2023-02-18T04:37:13;99686.53;;;8.91;70.96
39267;BME280;24967;51.154;13.812;2023-02-18T04:39:39;99682.25;;;9.19;70.25
39267;BME280;24967;51.154;13.812;2023-02-18T04:42:06;99683.88;;;8.91;70.85
39267;BME280;24967;51.154;13.812;2023-02-18T04:44:34;99677.75;;;9.10;70.71
39267;BME280;24967;51.154;13.812;2023-02-18T04:47:02;99676.38;;;9.06;70.69
39267;BME280;24967;51.154;13.812;2023-02-18T04:49:29;99682.06;;;9.01;71.37
39267;BME280;24967;51.154;13.812;2023-02-18T04:51:55;99679.41;;;9.01;71.54
39267;BME280;24967;51.154;13.812;2023-02-18T04:54:22;99681.94;;;9.03;71.95
39267;BME280;24967;51.154;13.812;2023-02-18T04:56:48;99686.53;;;9.01;71.79
39267;BME280;24967;51.154;13.812;2023-02-18T04:59:15;99691.41;;;8.95;72.32
39267;BME280;24967;51.154;13.812;2023-02-18T05:01:42;99691.41;;;8.95;72.34
39267;BME280;24967;51.154;13.812;2023-02-18T05:04:10;99693.00;;;9.08;72.21
39267;BME280;24967;51.154;13.812;2023-02-18T05:06:36;99695.97;;;8.74;73.43
39267;BME280;24967;51.154;13.812;2023-02-18T05:09:04;99693.22;;;8.95;72.61
39267;BME280;24967;51.154;13.812;2023-02-18T05:11:31;99691.03;;;9.20;72.84
39267;BME280;24967;51.154;13.812;2023-02-18T05:13:57;99686.72;;;9.28;72.19
39267;BME280;24967;51.154;13.812;2023-02-18T05:16:24;99685.19;;;9.55;71.63
39267;BME280;24967;51.154;13.812;2023-02-18T05:18:51;99683.94;;;9.39;72.17
39267;BME280;24967;51.154;13.812;2023-02-18T05:21:19;99680.72;;;9.36;72.87
39267;BME280;24967;51.154;13.812;2023-02-18T05:23:46;99685.16;;;9.16;73.62
39267;BME280;24967;51.154;13.812;2023-02-18T05:26:12;99674.28;;;9.09;73.93
39267;BME280;24967;51.154;13.812;2023-02-18T05:28:39;99679.03;;;9.15;73.77
39267;BME280;24967;51.154;13.812;2023-02-18T05:31:05;99672.72;;;8.97;74.78
39267;BME280;24967;51.154;13.812;2023-02-18T05:33:32;99668.44;;;9.25;74.10
39267;BME280;24967;51.154;13.812;2023-02-18T05:35:58;99660.34;;;9.17;74.06
39267;BME280;24967;51.154;13.812;2023-02-18T05:38:26;99664.22;;;8.93;74.55
39267;BME280;24967;51.154;13.812;2023-02-18T05:40:54;99662.00;;;9.28;73.65
39267;BME280;24967;51.154;13.812;2023-02-18T05:43:20;99664.09;;;9.05;74.87
39267;BME280;24967;51.154;13.812;2023-02-18T05:45:47;99658.53;;;9.27;73.76
39267;BME280;24967;51.154;13.812;2023-02-18T05:48:13;99656.69;;;9.57;73.17
39267;BME280;24967;51.154;13.812;2023-02-18T05:50:40;99651.94;;;9.31;73.89
39267;BME280;24967;51.154;13.812;2023-02-18T05:53:07;99652.50;;;9.54;73.19
39267;BME280;24967;51.154;13.812;2023-02-18T05:55:34;99657.69;;;9.36;73.75
39267;BME280;24967;51.154;13.812;2023-02-18T05:58:03;99643.84;;;9.43;73.83
39267;BME280;24967;51.154;13.812;2023-02-18T06:00:29;99642.59;;;9.47;73.72
39267;BME280;24967;51.154;13.812;2023-02-18T06:02:56;99639.25;;;9.45;73.42
39267;BME280;24967;51.154;13.812;2023-02-18T06:05:23;99652.50;;;9.64;73.38
39267;BME280;24967;51.154;13.812;2023-02-18T06:07:49;99632.66;;;9.78;73.32
39267;BME280;24967;51.154;13.812;2023-02-18T06:10:16;99637.66;;;9.81;73.20
39267;BME280;24967;51.154;13.812;2023-02-18T06:12:44;99639.03;;;9.85;73.37
39267;BME280;24967;51.154;13.812;2023-02-18T06:15:10;99639.88;;;9.85;73.81
39267;BME280;24967;51.154;13.812;2023-02-18T06:17:37;99641.00;;;9.83;74.78
39267;BME280;24967;51.154;13.812;2023-02-18T06:20:04;99637.63;;;9.91;75.36
39267;BME280;24967;51.154;13.812;2023-02-18T06:22:31;99637.06;;;9.97;75.62
39267;BME280;24967;51.154;13.812;2023-02-18T06:24:57;99635.53;;;9.94;76.28
39267;BME280;24967;51.154;13.812;2023-02-18T06:27:24;99631.50;;;9.90;77.44
39267;BME280;24967;51.154;13.812;2023-02-18T06:29:51;99634.28;;;9.89;78.22
39267;BME280;24967;51.154;13.812;2023-02-18T06:32:18;99628.25;;;9.96;78.52
39267;BME280;24967;51.154;13.812;2023-02-18T06:34:44;99626.72;;;9.94;79.54
39267;BME280;24967;51.154;13.812;2023-02-18T06:37:11;99629.78;;;9.89;80.54
39267;BME280;24967;51.154;13.812;2023-02-18T06:39:38;99642.16;;;9.80;81.60
39267;BME280;24967;51.154;13.812;2023-02-18T06:42:04;99632.66;;;9.78;82.18
39267;BME280;24967;51.154;13.812;2023-02-18T06:44:31;99627.59;;;9.84;82.46
39267;BME280;24967;51.154;13.812;2023-02-18T06:46:59;99630.00;;;9.58;84.63
39267;BME280;24967;51.154;13.812;2023-02-18T06:49:25;99628.63;;;9.54;85.62
39267;BME280;24967;51.154;13.812;2023-02-18T06:51:51;99626.25;;;9.51;86.81
39267;BME280;24967;51.154;13.812;2023-02-18T06:54:18;99619.25;;;9.40;88.17
39267;BME280;24967;51.154;13.812;2023-02-18T06:56:44;99620.41;;;9.48;88.41
39267;BME280;24967;51.154;13.812;2023-02-18T06:59:11;99613.97;;;9.50;88.72
39267;BME280;24967;51.154;13.812;2023-02-18T07:01:38;99623.19;;;9.46;89.40
39267;BME280;24967;51.154;13.812;2023-02-18T07:04:05;99619.66;;;9.75;88.44
39267;BME280;24967;51.154;13.812;2023-02-18T07:06:32;99616.03;;;9.66;88.74
39267;BME280;24967;51.154;13.812;2023-02-18T07:08:58;99614.22;;;9.67;89.08
39267;BME280;24967;51.154;13.812;2023-02-18T07:11:25;99606.47;;;9.83;88.62
39267;BME280;24967;51.154;13.812;2023-02-18T07:13:51;99610.28;;;9.80;89.24
39267;BME280;24967;51.154;13.812;2023-02-18T07:16:17;99607.00;;;9.96;88.67
39267;BME280;24967;51.154;13.812;2023-02-18T07:18:44;99604.72;;;10.11;87.60
39267;BME280;24967;51.154;13.812;2023-02-18T07:21:12;99597.69;;;9.82;88.89
39267;BME280;24967;51.154;13.812;2023-02-18T07:23:39;99595.59;;;9.76;90.04
39267;BME280;24967;51.154;13.812;2023-02-18T07:26:07;99593.50;;;9.80;89.68
39267;BME280;24967;51.154;13.812;2023-02-18T07:28:33;99588.63;;;9.75;91.10
39267;BME280;24967;51.154;13.812;2023-02-18T07:31:00;99579.44;;;9.60;92.37
39267;BME280;24967;51.154;13.812;2023-02-18T07:33:27;99583.03;;;9.78;91.75
39267;BME280;24967;51.154;13.812;2023-02-18T07:35:54;99577.56;;;9.90;91.04
39267;BME280;24967;51.154;13.812;2023-02-18T07:38:22;99582.88;;;9.80;91.82
39267;BME280;24967;51.154;13.812;2023-02-18T07:40:49;99568.19;;;9.85;91.87
39267;BME280;24967;51.154;13.812;2023-02-18T07:43:16;99567.84;;;9.98;91.19
39267;BME280;24967;51.154;13.812;2023-02-18T07:45:43;99571.91;;;10.02;91.21
39267;BME280;24967;51.154;13.812;2023-02-18T07:48:12;99561.63;;;10.17;89.89
39267;BME280;24967;51.154;13.812;2023-02-18T07:50:39;99548.78;;;10.13;89.16
39267;BME280;24967;51.154;13.812;2023-02-18T07:53:06;99551.19;;;10.06;90.41
39267;BME280;24967;51.154;13.812;2023-02-18T07:55:35;99550.69;;;10.30;89.49
39267;BME280;24967;51.154;13.812;2023-02-18T07:58:18;99544.69;;;10.18;89.89
39267;BME280;24967;51.154;13.812;2023-02-18T08:00:45;99546.75;;;9.97;90.72
39267;BME280;24967;51.154;13.812;2023-02-18T08:03:13;99551.31;;;9.77;91.99
39267;BME280;24967;51.154;13.812;2023-02-18T08:05:40;99550.59;;;9.84;91.95
39267;BME280;24967;51.154;13.812;2023-02-18T08:08:07;99533.50;;;9.97;91.53
39267;BME280;24967;51.154;13.812;2023-02-18T08:10:36;99532.19;;;10.01;91.32
39267;BME280;24967;51.154;13.812;2023-02-18T08:13:02;99530.66;;;9.98;91.16
39267;BME280;24967;51.154;13.812;2023-02-18T08:15:28;99522.31;;;9.93;91.71
39267;BME280;24967;51.154;13.812;2023-02-18T08:17:55;99525.88;;;10.12;91.36
39267;BME280;24967;51.154;13.812;2023-02-18T08:20:21;99524.94;;;10.03;91.50
39267;BME280;24967;51.154;13.812;2023-02-18T08:22:48;99524.28;;;10.19;90.96
39267;BME280;24967;51.154;13.812;2023-02-18T08:25:14;99515.69;;;10.07;91.00
39267;BME280;24967;51.154;13.812;2023-02-18T08:27:42;99521.38;;;10.12;91.17
39267;BME280;24967;51.154;13.812;2023-02-18T08:30:10;99510.06;;;10.10;91.31
39267;BME280;24967;51.154;13.812;2023-02-18T08:32:36;99488.97;;;10.08;91.33
39267;BME280;24967;51.154;13.812;2023-02-18T08:35:03;99501.38;;;10.18;91.17
39267;BME280;24967;51.154;13.812;2023-02-18T08:37:31;99491.19;;;10.59;89.35
39267;BME280;24967;51.154;13.812;2023-02-18T08:39:58;99463.84;;;10.30;89.64
39267;BME280;24967;51.154;13.812;2023-02-18T08:42:25;99479.25;;;10.27;90.11
39267;BME280;24967;51.154;13.812;2023-02-18T08:44:52;99469.88;;;10.23;90.37
39267;BME280;24967;51.154;13.812;2023-02-18T08:47:19;99482.53;;;10.39;90.08
39267;BME280;24967;51.154;13.812;2023-02-18T08:49:46;99441.38;;;9.97;91.23
39267;BME280;24967;51.154;13.812;2023-02-18T08:52:12;99442.56;;;9.85;93.00
39267;BME280;24967;51.154;13.812;2023-02-18T08:54:39;99458.03;;;10.17;92.41
39267;BME280;24967;51.154;13.812;2023-02-18T08:57:05;99461.63;;;10.26;91.86
39267;BME280;24967;51.154;13.812;2023-02-18T08:59:32;99451.91;;;10.35;91.30
39267;BME280;24967;51.154;13.812;2023-02-18T09:02:00;99435.75;;;10.46;91.05
39267;BME280;24967;51.154;13.812;2023-02-18T09:04:26;99428.78;;;10.45;90.14
39267;BME280;24967;51.154;13.812;2023-02-18T09:06:52;99420.72;;;10.37;90.09
39267;BME280;24967;51.154;13.812;2023-02-18T09:09:19;99425.28;;;10.62;89.49
39267;BME280;24967;51.154;13.812;2023-02-18T09:11:45;99423.59;;;10.61;89.65
39267;BME280;24967;51.154;13.812;2023-02-18T09:14:12;99419.03;;;10.71;89.21
39267;BME280;24967;51.154;13.812;2023-02-18T09:16:39;99412.41;;;10.75;89.01
39267;BME280;24967;51.154;13.812;2023-02-18T09:19:07;99402.50;;;10.60;88.53
39267;BME280;24967;51.154;13.812;2023-02-18T09:21:34;99402.84;;;10.65;89.58
39267;BME280;24967;51.154;13.812;2023-02-18T09:24:00;99408.78;;;10.59;89.85
39267;BME280;24967;51.154;13.812;2023-02-18T09:26:27;99400.50;;;10.62;90.00
39267;BME280;24967;51.154;13.812;2023-02-18T09:28:54;99400.66;;;10.60;89.99
39267;BME280;24967;51.154;13.812;2023-02-18T09:31:23;99397.59;;;10.73;89.80
39267;BME280;24967;51.154;13.812;2023-02-18T09:33:53;99391.88;;;10.86;89.23
39267;BME280;24967;51.154;13.812;2023-02-18T09:36:21;99374.38;;;10.83;89.00
39267;BME280;24967;51.154;13.812;2023-02-18T09:38:48;99370.25;;;10.81;88.41
39267;BME280;24967;51.154;13.812;2023-02-18T09:41:23;99369.31;;;10.90;89.14
39267;BME280;24967;51.154;13.812;2023-02-18T09:43:54;99364.63;;;10.92;88.33
39267;BME280;24967;51.154;13.812;2023-02-18T09:46:25;99362.91;;;10.83;89.36
39267;BME280;24967;51.154;13.812;2023-02-18T09:48:54;99363.03;;;10.99;88.71
39267;BME280;24967;51.154;13.812;2023-02-18T09:51:22;99361.78;;;10.85;89.94
39267;BME280;24967;51.154;13.812;2023-02-18T09:53:49;99353.88;;;10.93;89.78
39267;BME280;24967;51.154;13.812;2023-02-18T09:56:20;99356.97;;;11.15;89.24
39267;BME280;24967;51.154;13.812;2023-02-18T09:58:48;99353.53;;;11.22;87.86
39267;BME280;24967;51.154;13.812;2023-02-18T10:01:27;99347.09;;;11.07;89.42
39267;BME280;24967;51.154;13.812;2023-02-18T10:03:57;99342.09;;;11.04;89.94
39267;BME280;24967;51.154;13.812;2023-02-18T10:06:29;99332.03;;;10.82;91.29
39267;BME280;24967;51.154;13.812;2023-02-18T10:08:59;99330.13;;;10.74;93.97
39267;BME280;24967;51.154;13.812;2023-02-18T10:11:29;99320.72;;;10.53;97.10
39267;BME280;24967;51.154;13.812;2023-02-18T10:13:56;99320.72;;;10.53;99.02
39267;BME280;24967;51.154;13.812;2023-02-18T10:16:25;99314.47;;;10.63;99.86
39267;BME280;24967;51.154;13.812;2023-02-18T10:18:54;99308.72;;;10.75;99.74
39267;BME280;24967;51.154;13.812;2023-02-18T10:21:24;99319.03;;;10.52;100.00
39267;BME280;24967;51.154;13.812;2023-02-18T10:23:57;99302.44;;;10.32;100.00
39267;BME280;24967;51.154;13.812;2023-02-18T10:26:25;99307.94;;;10.57;100.00
39267;BME280;24967;51.154;13.812;2023-02-18T10:28:52;99301.28;;;10.53;100.00
39267;BME280;24967;51.154;13.812;2023-02-18T10:31:22;99305.94;;;10.33;100.00
39267;BME280;24967;51.154;13.812;2023-02-18T10:33:55;99290.06;;;10.23;100.00
39267;BME280;24967;51.154;13.812;2023-02-18T10:36:25;99297.59;;;10.28;100.00
39267;BME280;24967;51.154;13.812;2023-02-18T10:42:05;99284.88;;;10.40;100.00
39267;BME280;24967;51.154;13.812;2023-02-18T10:44:40;99274.53;;;10.54;100.00
39267;BME280;24967;51.154;13.812;2023-02-18T10:47:16;99264.97;;;10.70;100.00
39267;BME280;24967;51.154;13.812;2023-02-18T10:50:07;99267.59;;;10.62;100.00
39267;BME280;24967;51.154;13.812;2023-02-18T10:52:38;99262.13;;;10.63;100.00
39267;BME280;24967;51.154;13.812;2023-02-18T10:55:07;99247.16;;;10.36;100.00
39267;BME280;24967;51.154;13.812;2023-02-18T10:57:44;99240.22;;;10.43;100.00
39267;BME280;24967;51.154;13.812;2023-02-18T11:00:16;99241.03;;;10.36;100.00
39267;BME280;24967;51.154;13.812;2023-02-18T11:02:43;99234.78;;;10.45;100.00
39267;BME280;24967;51.154;13.812;2023-02-18T11:05:18;99225.84;;;10.54;100.00
39267;BME280;24967;51.154;13.812;2023-02-18T11:07:50;99216.00;;;10.46;100.00
39267;BME280;24967;51.154;13.812;2023-02-18T11:10:21;99215.41;;;10.61;100.00
39267;BME280;24967;51.154;13.812;2023-02-18T11:12:54;99207.13;;;10.64;100.00
39267;BME280;24967;51.154;13.812;2023-02-18T11:15:23;99206.50;;;10.70;100.00
39267;BME280;24967;51.154;13.812;2023-02-18T11:17:51;99185.06;;;10.71;100.00
39267;BME280;24967;51.154;13.812;2023-02-18T11:20:25;99187.59;;;10.81;100.00
39267;BME280;24967;51.154;13.812;2023-02-18T11:22:56;99170.94;;;10.71;100.00
39267;BME280;24967;51.154;13.812;2023-02-18T11:25:23;99168.31;;;10.79;100.00
39267;BME280;24967;51.154;13.812;2023-02-18T11:27:54;99170.50;;;10.92;100.00
39267;BME280;24967;51.154;13.812;2023-02-18T11:30:23;99176.69;;;10.92;100.00
39267;BME280;24967;51.154;13.812;2023-02-18T11:32:54;99175.81;;;10.92;100.00
39267;BME280;24967;51.154;13.812;2023-02-18T11:35:23;99160.56;;;11.10;100.00
39267;BME280;24967;51.154;13.812;2023-02-18T11:37:50;99145.47;;;11.11;100.00
39267;BME280;24967;51.154;13.812;2023-02-18T11:40:22;99148.06;;;10.94;100.00
39267;BME280;24967;51.154;13.812;2023-02-18T11:42:50;99136.13;;;10.98;100.00
39267;BME280;24967;51.154;13.812;2023-02-18T11:45:27;99133.16;;;11.10;100.00
39267;BME280;24967;51.154;13.812;2023-02-18T11:47:58;99138.47;;;11.18;100.00
39267;BME280;24967;51.154;13.812;2023-02-18T11:50:29;99126.81;;;11.03;100.00
39267;BME280;24967;51.154;13.812;2023-02-18T11:52:56;99120.03;;;11.24;100.00
39267;BME280;24967;51.154;13.812;2023-02-18T11:55:25;99114.53;;;11.10;100.00
39267;BME280;24967;51.154;13.812;2023-02-18T11:57:55;99125.88;;;11.20;100.00
39267;BME280;24967;51.154;13.812;2023-02-18T12:00:24;99117.03;;;11.11;100.00
39267;BME280;24967;51.154;13.812;2023-02-18T12:02:57;99115.84;;;11.06;100.00
39267;BME280;24967;51.154;13.812;2023-02-18T12:05:27;99111.38;;;11.31;100.00
39267;BME280;24967;51.154;13.812;2023-02-18T12:07:57;99108.06;;;11.29;100.00
39267;BME280;24967;51.154;13.812;2023-02-18T12:10:29;99107.06;;;11.21;100.00
39267;BME280;24967;51.154;13.812;2023-02-18T12:13:02;99110.03;;;11.02;100.00
39267;BME280;24967;51.154;13.812;2023-02-18T12:15:39;99105.38;;;11.12;100.00
39267;BME280;24967;51.154;13.812;2023-02-18T12:18:30;99095.91;;;11.10;100.00
39267;BME280;24967;51.154;13.812;2023-02-18T12:21:17;99103.25;;;11.24;99.30
39267;BME280;24967;51.154;13.812;2023-02-18T12:23:56;99103.25;;;11.24;100.00
39267;BME280;24967;51.154;13.812;2023-02-18T12:26:27;99103.22;;;11.16;100.00
39267;BME280;24967;51.154;13.812;2023-02-18T12:29:05;99100.91;;;11.05;100.00
39267;BME280;24967;51.154;13.812;2023-02-18T12:32:04;99091.03;;;10.89;100.00
39267;BME280;24967;51.154;13.812;2023-02-18T12:34:57;99097.84;;;10.83;100.00
39267;BME280;24967;51.154;13.812;2023-02-18T12:37:49;99104.81;;;10.76;100.00
39267;BME280;24967;51.154;13.812;2023-02-18T12:40:36;99104.34;;;10.81;100.00
39267;BME280;24967;51.154;13.812;2023-02-18T12:43:14;99096.31;;;10.64;100.00
39267;BME280;24967;51.154;13.812;2023-02-18T12:45:55;99102.91;;;10.52;100.00
39267;BME280;24967;51.154;13.812;2023-02-18T12:48:40;99096.59;;;10.45;100.00
39267;BME280;24967;51.154;13.812;2023-02-18T12:51:18;99100.75;;;10.55;100.00
39267;BME280;24967;51.154;13.812;2023-02-18T12:53:58;99113.50;;;10.44;100.00
39267;BME280;24967;51.154;13.812;2023-02-18T12:56:52;99108.88;;;10.46;100.00
39267;BME280;24967;51.154;13.812;2023-02-18T12:59:42;99122.81;;;10.40;100.00
39267;BME280;24967;51.154;13.812;2023-02-18T13:02:29;99114.59;;;10.59;100.00
39267;BME280;24967;51.154;13.812;2023-02-18T13:05:06;99109.25;;;10.51;100.00
39267;BME280;24967;51.154;13.812;2023-02-18T13:07:53;99113.53;;;10.52;100.00
39267;BME280;24967;51.154;13.812;2023-02-18T13:10:55;99107.53;;;10.42;100.00
39267;BME280;24967;51.154;13.812;2023-02-18T13:13:30;99105.53;;;10.44;100.00
39267;BME280;24967;51.154;13.812;2023-02-18T13:16:00;99092.47;;;10.24;100.00